Urb Bay View, Puerto Rico
Current Conditions -  °F | °C
As of 11:56 PM on Wednesday 17 Dec 2014 (Local Time) from TJSJ Reporting Station
Scattered Clouds Scattered Clouds  
Wind Chill: 26°   Ceiling: Unl
Heat Index: 27°   Visibility: 10mi
Dew Point: 19°   Wind: 8mph
Humidity: 68%   Direction: 30°NNE
Pressure: 30.03"   Gusts: NA
Location:  18.4443°N, 66.1386°W
Report Text: TJSJ 180356Z 03007KT 10SM SCT032 26/19 A3003 RMK AO2 SLP167 T02560194 402830239
Loading
Personal Weather Stations






























Interactive Weather Map New forecast layout! Learn more

10-Day Weather Forecast

Advertisements
Track Severe Weather on mobile